メインページ
METAR-TAF:

METAR-TAF

空港 :

Terrace, ブリティッシュコロンビア州, カナダ

緯度: 54-28N, 経度: 128-35W, 海抜: 217m

現時点の気象観測

当レポートは1時間9分前の17:00(UTC)に作成
南/南東の風 23kt、最大30ktの突風を伴う
気温 10°C
湿度 87%
気圧 999 hPa
視程: 24.1km
高度400ftの雲はほとんどない
高度2000ftの雲は散在している
高度3800ftの千切れ雲あり
高度10000ftの千切れ雲あり
弱いにわか雨

METAR: CYXT 171700Z 16023G30KT 15SM -SHRA FEW004 SCT020 BKN038 BKN100 10/08 A2950 RMK CF2CU1CU2AC1 SLP996 DENSITY ALT 800FT

時間: 10:09 (18:09 UTC)

予報

当レポートは58分前の17:11(UTC)に作成
予報は17日の 17時(UTC)から 18日の 01時(UTC)まで有効
南/南東の風 20kt、最大30ktの突風を伴う
視程: 10km
高度2000ftの雲は散在している
高度4000ftの千切れ雲あり
小雨
17日の 17時(UTC)から 18日の 01時(UTC)まで一時的に
視程: 6.4km
高度500ftの雲は散在している
高度2000ftの曇り
弱いにわか雨, 靄
17日の 19時(UTC)から 17日の 21時(UTC)まで徐々に
の風 18kt

TAF: CYXT 171711Z 1717/1801 16020G30KT P6SM -RA SCT020 BKN040 TEMPO 1717/1801 4SM -SHRA BR SCT005 OVC020 BECMG 1719/1721 19018KT RMK NXT FCST BY 171900Z

4,000以上の空港の気象観測と天気予報(METAR報とTAF報)

利用可能な観測所は地図上に黄色い丸と赤い丸で示す。

丸の上にカーソルを重ねると観測所名を参照できる。

次にクリックすると気象観測と天気予報を参照できる。

マップの切り替え:黒色「×」印の緑ボタンをクリックして拡大、「-」印の緑ボタンをクリックして縮小、緑色の三角印をクリックして隣りの地図に切り替え


METAR-TAF: